Novo Hamburgo, Brazil
Current Conditions -  °F | °C
As of 2:00 PM on Monday 24 Nov 2014 (Local Time) from SBCO Reporting Station
Clear Clear  
Wind Chill: 90°   Ceiling: Unl
Heat Index: 91°   Visibility: 6mi
Dew Point: 64°   Wind: 9mph
Humidity: 43%   Direction: 320°NW
Pressure: 29.85"   Gusts: NA
Location:  29.71°S, 51.14°W
Report Text: SBCO 241600Z 32008KT CAVOK 32/18 Q1011
Loading
Personal Weather Stations






























Interactive Weather Map New forecast layout! Learn more

10-Day Weather Forecast

Advertisements
Track Severe Weather on mobile